sensor_id;sensor_type;location;lat;lon;timestamp;pressure;altitude;pressure_sealevel;temperature;humidity
23166;BME280;11751;42.700;24.170;2023-02-14T00:01:37;95245.66;;;-2.25;nan
23166;BME280;11751;42.700;24.170;2023-02-14T00:04:03;95246.81;;;-2.14;nan
23166;BME280;11751;42.700;24.170;2023-02-14T00:06:33;95255.28;;;-2.21;nan
23166;BME280;11751;42.700;24.170;2023-02-14T00:09:03;95248.28;;;-2.22;nan
23166;BME280;11751;42.700;24.170;2023-02-14T00:11:29;95241.13;;;-2.19;nan
23166;BME280;11751;42.700;24.170;2023-02-14T00:13:55;95236.56;;;-2.22;nan
23166;BME280;11751;42.700;24.170;2023-02-14T00:16:39;95234.63;;;-2.13;nan
23166;BME280;11751;42.700;24.170;2023-02-14T00:19:05;95231.56;;;-2.15;nan
23166;BME280;11751;42.700;24.170;2023-02-14T00:21:33;95235.06;;;-2.14;nan
23166;BME280;11751;42.700;24.170;2023-02-14T00:24:01;95231.56;;;-2.15;nan
23166;BME280;11751;42.700;24.170;2023-02-14T00:26:26;95219.19;;;-2.19;nan
23166;BME280;11751;42.700;24.170;2023-02-14T00:28:51;95219.38;;;-2.35;nan
23166;BME280;11751;42.700;24.170;2023-02-14T00:31:17;95209.38;;;-2.29;nan
23166;BME280;11751;42.700;24.170;2023-02-14T00:33:42;95211.03;;;-2.32;nan
23166;BME280;11751;42.700;24.170;2023-02-14T00:36:08;95219.13;;;-2.28;nan
23166;BME280;11751;42.700;24.170;2023-02-14T00:38:34;95218.38;;;-2.29;nan
23166;BME280;11751;42.700;24.170;2023-02-14T00:41:00;95219.81;;;-2.15;nan
23166;BME280;11751;42.700;24.170;2023-02-14T00:43:26;95218.63;;;-2.14;nan
23166;BME280;11751;42.700;24.170;2023-02-14T00:45:51;95206.44;;;-2.13;nan
23166;BME280;11751;42.700;24.170;2023-02-14T00:48:17;95200.94;;;-2.13;nan
23166;BME280;11751;42.700;24.170;2023-02-14T00:50:42;95205.28;;;-2.25;nan
23166;BME280;11751;42.700;24.170;2023-02-14T00:53:10;95208.56;;;-2.08;nan
23166;BME280;11751;42.700;24.170;2023-02-14T00:55:36;95205.41;;;-2.07;nan
23166;BME280;11751;42.700;24.170;2023-02-14T00:58:02;95193.56;;;-2.25;nan
23166;BME280;11751;42.700;24.170;2023-02-14T01:00:27;95190.22;;;-2.20;nan
23166;BME280;11751;42.700;24.170;2023-02-14T01:02:52;95197.56;;;-2.17;nan
23166;BME280;11751;42.700;24.170;2023-02-14T01:05:18;95193.38;;;-2.31;nan
23166;BME280;11751;42.700;24.170;2023-02-14T01:07:43;95185.00;;;-2.27;nan
23166;BME280;11751;42.700;24.170;2023-02-14T01:10:09;95191.13;;;-2.23;nan
23166;BME280;11751;42.700;24.170;2023-02-14T01:12:34;95188.72;;;-2.21;nan
23166;BME280;11751;42.700;24.170;2023-02-14T01:15:00;95179.59;;;-2.09;nan
23166;BME280;11751;42.700;24.170;2023-02-14T01:17:26;95174.13;;;-2.09;nan
23166;BME280;11751;42.700;24.170;2023-02-14T01:19:52;95188.38;;;-2.23;nan
23166;BME280;11751;42.700;24.170;2023-02-14T01:22:17;95184.38;;;-2.31;nan
23166;BME280;11751;42.700;24.170;2023-02-14T01:24:43;95179.38;;;-2.24;nan
23166;BME280;11751;42.700;24.170;2023-02-14T01:27:08;95187.59;;;-2.24;nan
23166;BME280;11751;42.700;24.170;2023-02-14T01:29:34;95163.69;;;-2.23;nan
23166;BME280;11751;42.700;24.170;2023-02-14T01:31:59;95153.94;;;-2.24;nan
23166;BME280;11751;42.700;24.170;2023-02-14T01:34:24;95161.28;;;-2.21;nan
23166;BME280;11751;42.700;24.170;2023-02-14T01:36:50;95154.50;;;-2.29;nan
23166;BME280;11751;42.700;24.170;2023-02-14T01:39:15;95139.59;;;-2.28;nan
23166;BME280;11751;42.700;24.170;2023-02-14T01:41:44;95144.41;;;-2.41;nan
23166;BME280;11751;42.700;24.170;2023-02-14T01:46:37;95139.91;;;-2.56;nan
23166;BME280;11751;42.700;24.170;2023-02-14T01:49:11;95150.78;;;-2.44;nan
23166;BME280;11751;42.700;24.170;2023-02-14T01:51:42;95146.78;;;-2.22;nan
23166;BME280;11751;42.700;24.170;2023-02-14T01:54:09;95149.13;;;-2.11;nan
23166;BME280;11751;42.700;24.170;2023-02-14T01:56:41;95135.25;;;-2.17;nan
23166;BME280;11751;42.700;24.170;2023-02-14T01:59:12;95143.94;;;-2.09;nan
23166;BME280;11751;42.700;24.170;2023-02-14T02:01:40;95119.84;;;-2.14;nan
23166;BME280;11751;42.700;24.170;2023-02-14T02:04:11;95123.09;;;-2.07;nan
23166;BME280;11751;42.700;24.170;2023-02-14T02:06:42;95127.44;;;-2.18;nan
23166;BME280;11751;42.700;24.170;2023-02-14T02:09:32;95117.59;;;-2.07;nan
23166;BME280;11751;42.700;24.170;2023-02-14T02:12:00;95121.06;;;-2.46;nan
23166;BME280;11751;42.700;24.170;2023-02-14T02:14:25;95105.56;;;-2.40;nan
23166;BME280;11751;42.700;24.170;2023-02-14T02:16:58;95109.38;;;-2.37;nan
23166;BME280;11751;42.700;24.170;2023-02-14T02:46:21;95094.41;;;-2.45;nan
23166;BME280;11751;42.700;24.170;2023-02-14T02:52:18;95094.44;;;-2.36;nan
23166;BME280;11751;42.700;24.170;2023-02-14T02:55:22;95103.31;;;-2.32;nan
23166;BME280;11751;42.700;24.170;2023-02-14T02:57:52;95110.06;;;-2.24;nan
23166;BME280;11751;42.700;24.170;2023-02-14T03:00:19;95091.75;;;-2.27;nan
23166;BME280;11751;42.700;24.170;2023-02-14T03:02:48;95089.31;;;-2.25;nan
23166;BME280;11751;42.700;24.170;2023-02-14T03:05:34;95098.44;;;-2.28;nan
23166;BME280;11751;42.700;24.170;2023-02-14T03:08:02;95087.03;;;-2.27;nan
23166;BME280;11751;42.700;24.170;2023-02-14T03:10:32;95092.88;;;-2.46;nan
23166;BME280;11751;42.700;24.170;2023-02-14T03:18:46;95083.13;;;-2.47;nan
23166;BME280;11751;42.700;24.170;2023-02-14T03:21:44;95079.44;;;-2.53;nan
23166;BME280;11751;42.700;24.170;2023-02-14T03:25:03;95082.50;;;-2.51;nan
23166;BME280;11751;42.700;24.170;2023-02-14T03:27:42;95080.66;;;-2.54;nan
23166;BME280;11751;42.700;24.170;2023-02-14T03:30:56;95085.25;;;-2.51;nan
23166;BME280;11751;42.700;24.170;2023-02-14T03:36:21;95065.94;;;-2.69;nan
23166;BME280;11751;42.700;24.170;2023-02-14T03:38:59;95060.16;;;-2.71;nan
23166;BME280;11751;42.700;24.170;2023-02-14T03:41:31;95070.16;;;-2.77;nan
23166;BME280;11751;42.700;24.170;2023-02-14T03:44:02;95068.53;;;-2.74;nan
23166;BME280;11751;42.700;24.170;2023-02-14T03:46:30;95065.00;;;-2.75;nan
23166;BME280;11751;42.700;24.170;2023-02-14T03:48:58;95083.06;;;-2.86;nan
23166;BME280;11751;42.700;24.170;2023-02-14T03:51:28;95076.22;;;-3.03;nan
23166;BME280;11751;42.700;24.170;2023-02-14T03:53:58;95084.47;;;-2.82;nan
23166;BME280;11751;42.700;24.170;2023-02-14T03:56:31;95078.91;;;-2.69;nan
23166;BME280;11751;42.700;24.170;2023-02-14T03:59:06;95076.81;;;-2.87;nan
23166;BME280;11751;42.700;24.170;2023-02-14T04:01:41;95079.13;;;-2.85;nan
23166;BME280;11751;42.700;24.170;2023-02-14T04:04:11;95062.81;;;-2.89;nan
23166;BME280;11751;42.700;24.170;2023-02-14T04:06:38;95071.59;;;-2.94;nan
23166;BME280;11751;42.700;24.170;2023-02-14T04:09:04;95054.00;;;-3.27;nan
23166;BME280;11751;42.700;24.170;2023-02-14T04:11:29;95074.84;;;-3.08;nan
23166;BME280;11751;42.700;24.170;2023-02-14T04:13:59;95064.84;;;-3.02;nan
23166;BME280;11751;42.700;24.170;2023-02-14T04:16:24;95064.06;;;-3.02;nan
23166;BME280;11751;42.700;24.170;2023-02-14T04:18:50;95070.06;;;-2.95;nan
23166;BME280;11751;42.700;24.170;2023-02-14T04:21:34;95069.31;;;-2.95;nan
23166;BME280;11751;42.700;24.170;2023-02-14T04:23:59;95059.50;;;-3.05;nan
23166;BME280;11751;42.700;24.170;2023-02-14T04:26:25;95060.31;;;-2.96;nan
23166;BME280;11751;42.700;24.170;2023-02-14T04:28:50;95060.38;;;-2.87;nan
23166;BME280;11751;42.700;24.170;2023-02-14T04:31:15;95056.69;;;-2.93;nan
23166;BME280;11751;42.700;24.170;2023-02-14T04:33:41;95058.84;;;-2.88;nan
23166;BME280;11751;42.700;24.170;2023-02-14T04:36:08;95052.16;;;-2.87;nan
23166;BME280;11751;42.700;24.170;2023-02-14T04:38:33;95044.72;;;-2.86;nan
23166;BME280;11751;42.700;24.170;2023-02-14T04:40:59;95042.38;;;-2.88;nan
23166;BME280;11751;42.700;24.170;2023-02-14T04:43:24;95034.13;;;-2.97;nan
23166;BME280;11751;42.700;24.170;2023-02-14T04:45:50;95026.03;;;-3.00;nan
23166;BME280;11751;42.700;24.170;2023-02-14T04:48:15;95029.28;;;-2.93;nan
23166;BME280;11751;42.700;24.170;2023-02-14T04:50:40;95016.69;;;-3.12;nan
23166;BME280;11751;42.700;24.170;2023-02-14T04:53:06;95030.19;;;-2.96;nan
23166;BME280;11751;42.700;24.170;2023-02-14T04:55:31;95025.25;;;-3.10;nan
23166;BME280;11751;42.700;24.170;2023-02-14T04:57:57;95029.81;;;-3.07;nan
23166;BME280;11751;42.700;24.170;2023-02-14T05:00:22;95006.38;;;-3.29;nan
23166;BME280;11751;42.700;24.170;2023-02-14T05:02:48;95008.53;;;-3.45;nan
23166;BME280;11751;42.700;24.170;2023-02-14T05:05:14;95018.13;;;-3.29;nan
23166;BME280;11751;42.700;24.170;2023-02-14T05:07:39;95027.78;;;-3.37;nan
23166;BME280;11751;42.700;24.170;2023-02-14T05:10:06;95020.91;;;-3.41;nan
23166;BME280;11751;42.700;24.170;2023-02-14T05:12:32;95022.28;;;-3.37;nan
23166;BME280;11751;42.700;24.170;2023-02-14T05:14:57;95017.66;;;-3.48;nan
23166;BME280;11751;42.700;24.170;2023-02-14T05:17:23;95011.59;;;-3.43;nan
23166;BME280;11751;42.700;24.170;2023-02-14T05:19:48;95006.59;;;-3.45;nan
23166;BME280;11751;42.700;24.170;2023-02-14T05:22:14;95007.78;;;-3.25;nan
23166;BME280;11751;42.700;24.170;2023-02-14T05:24:39;95009.81;;;-3.38;nan
23166;BME280;11751;42.700;24.170;2023-02-14T05:27:05;95007.78;;;-3.25;nan
23166;BME280;11751;42.700;24.170;2023-02-14T05:29:31;95016.31;;;-3.23;nan
23166;BME280;11751;42.700;24.170;2023-02-14T05:31:57;95016.31;;;-3.23;nan
23166;BME280;11751;42.700;24.170;2023-02-14T05:34:22;95015.06;;;-3.31;nan
23166;BME280;11751;42.700;24.170;2023-02-14T05:36:47;95025.88;;;-3.27;nan
23166;BME280;11751;42.700;24.170;2023-02-14T05:39:13;95016.97;;;-3.19;nan
23166;BME280;11751;42.700;24.170;2023-02-14T05:41:39;95003.56;;;-3.17;nan
23166;BME280;11751;42.700;24.170;2023-02-14T05:44:04;95017.31;;;-3.08;nan
23166;BME280;11751;42.700;24.170;2023-02-14T05:46:30;95017.03;;;-3.10;nan
23166;BME280;11751;42.700;24.170;2023-02-14T05:48:55;95022.78;;;-3.08;nan
23166;BME280;11751;42.700;24.170;2023-02-14T05:51:20;95028.41;;;-3.33;nan
23166;BME280;11751;42.700;24.170;2023-02-14T05:53:46;95029.13;;;-3.20;nan
23166;BME280;11751;42.700;24.170;2023-02-14T05:56:11;95022.50;;;-3.10;nan
23166;BME280;11751;42.700;24.170;2023-02-14T05:58:36;95019.53;;;-2.94;nan
23166;BME280;11751;42.700;24.170;2023-02-14T06:01:02;95029.34;;;-2.84;nan
23166;BME280;11751;42.700;24.170;2023-02-14T06:03:28;95015.16;;;-2.82;nan
23166;BME280;11751;42.700;24.170;2023-02-14T06:05:53;95024.50;;;-2.80;nan
23166;BME280;11751;42.700;24.170;2023-02-14T06:08:19;95017.91;;;-2.82;nan
23166;BME280;11751;42.700;24.170;2023-02-14T06:10:44;95026.31;;;-2.77;nan
23166;BME280;11751;42.700;24.170;2023-02-14T06:13:10;95023.94;;;-2.66;nan
23166;BME280;11751;42.700;24.170;2023-02-14T06:15:36;95021.22;;;-2.57;nan
23166;BME280;11751;42.700;24.170;2023-02-14T06:18:02;95014.25;;;-2.49;nan
23166;BME280;11751;42.700;24.170;2023-02-14T06:20:28;95011.56;;;-2.40;nan
23166;BME280;11751;42.700;24.170;2023-02-14T06:22:54;95015.53;;;-2.41;nan
23166;BME280;11751;42.700;24.170;2023-02-14T06:25:20;95018.13;;;-2.38;nan
23166;BME280;11751;42.700;24.170;2023-02-14T06:27:46;95023.19;;;-2.18;nan
23166;BME280;11751;42.700;24.170;2023-02-14T06:30:12;95015.91;;;-2.12;nan
23166;BME280;11751;42.700;24.170;2023-02-14T06:32:38;95015.59;;;-2.23;nan
23166;BME280;11751;42.700;24.170;2023-02-14T06:35:05;95009.38;;;-2.06;nan
23166;BME280;11751;42.700;24.170;2023-02-14T06:37:30;95012.00;;;-1.93;nan
23166;BME280;11751;42.700;24.170;2023-02-14T06:39:56;95005.91;;;-1.79;nan
23166;BME280;11751;42.700;24.170;2023-02-14T06:42:22;95018.09;;;-1.89;nan
23166;BME280;11751;42.700;24.170;2023-02-14T06:44:47;95007.44;;;-1.78;nan
23166;BME280;11751;42.700;24.170;2023-02-14T06:47:13;95020.25;;;-1.67;nan
23166;BME280;11751;42.700;24.170;2023-02-14T06:49:38;95016.13;;;-1.44;nan
23166;BME280;11751;42.700;24.170;2023-02-14T06:52:04;95005.59;;;-1.28;nan
23166;BME280;11751;42.700;24.170;2023-02-14T06:54:30;94998.28;;;-1.31;nan
23166;BME280;11751;42.700;24.170;2023-02-14T06:56:55;94990.03;;;-1.13;nan
23166;BME280;11751;42.700;24.170;2023-02-14T06:59:21;94992.00;;;-1.04;nan
23166;BME280;11751;42.700;24.170;2023-02-14T07:01:46;95002.41;;;-1.08;nan
23166;BME280;11751;42.700;24.170;2023-02-14T07:04:12;95003.44;;;-0.97;nan
23166;BME280;11751;42.700;24.170;2023-02-14T07:06:37;94983.53;;;-0.74;nan
23166;BME280;11751;42.700;24.170;2023-02-14T07:09:03;94995.69;;;-0.57;nan
23166;BME280;11751;42.700;24.170;2023-02-14T07:11:29;94998.41;;;-0.48;nan
23166;BME280;11751;42.700;24.170;2023-02-14T07:13:54;94988.41;;;-0.37;nan
23166;BME280;11751;42.700;24.170;2023-02-14T07:16:19;94997.56;;;-0.31;nan
23166;BME280;11751;42.700;24.170;2023-02-14T07:18:45;94995.28;;;-0.09;nan
23166;BME280;11751;42.700;24.170;2023-02-14T07:21:10;94994.50;;;-0.01;nan
23166;BME280;11751;42.700;24.170;2023-02-14T07:23:36;94991.56;;;0.26;nan
23166;BME280;11751;42.700;24.170;2023-02-14T07:26:01;94979.63;;;0.29;nan
23166;BME280;11751;42.700;24.170;2023-02-14T07:28:27;94987.38;;;0.54;nan
23166;BME280;11751;42.700;24.170;2023-02-14T07:30:57;94990.34;;;0.65;nan
23166;BME280;11751;42.700;24.170;2023-02-14T07:33:23;94986.59;;;0.77;nan
23166;BME280;11751;42.700;24.170;2023-02-14T07:35:48;94992.41;;;0.79;nan
23166;BME280;11751;42.700;24.170;2023-02-14T07:38:14;94980.34;;;0.91;nan
23166;BME280;11751;42.700;24.170;2023-02-14T07:40:39;94971.31;;;1.05;nan
23166;BME280;11751;42.700;24.170;2023-02-14T07:43:04;94971.22;;;1.14;nan
23166;BME280;11751;42.700;24.170;2023-02-14T07:45:30;94977.91;;;1.22;nan
23166;BME280;11751;42.700;24.170;2023-02-14T07:47:56;94973.41;;;1.39;nan
23166;BME280;11751;42.700;24.170;2023-02-14T07:50:24;94974.63;;;1.52;nan
23166;BME280;11751;42.700;24.170;2023-02-14T07:52:49;94974.59;;;1.67;nan
23166;BME280;11751;42.700;24.170;2023-02-14T07:55:14;94977.66;;;1.68;nan
23166;BME280;11751;42.700;24.170;2023-02-14T07:57:40;94968.13;;;1.69;nan
23166;BME280;11751;42.700;24.170;2023-02-14T08:00:07;94968.84;;;1.84;nan
23166;BME280;11751;42.700;24.170;2023-02-14T08:02:32;94964.97;;;2.11;nan
23166;BME280;11751;42.700;24.170;2023-02-14T08:04:58;94954.69;;;2.31;nan
23166;BME280;11751;42.700;24.170;2023-02-14T08:07:23;94956.69;;;2.31;nan
23166;BME280;11751;42.700;24.170;2023-02-14T08:09:49;94961.41;;;2.45;nan
23166;BME280;11751;42.700;24.170;2023-02-14T08:12:14;94966.31;;;2.55;nan
23166;BME280;11751;42.700;24.170;2023-02-14T08:14:58;94955.59;;;2.62;nan
23166;BME280;11751;42.700;24.170;2023-02-14T08:17:43;94953.06;;;2.84;nan
23166;BME280;11751;42.700;24.170;2023-02-14T08:20:09;94954.22;;;2.98;nan
23166;BME280;11751;42.700;24.170;2023-02-14T08:22:34;94953.06;;;3.10;nan
23166;BME280;11751;42.700;24.170;2023-02-14T08:25:00;94968.44;;;3.11;nan
23166;BME280;11751;42.700;24.170;2023-02-14T08:27:25;94946.13;;;3.20;nan
23166;BME280;11751;42.700;24.170;2023-02-14T08:29:50;94943.47;;;3.31;nan
23166;BME280;11751;42.700;24.170;2023-02-14T08:32:16;94945.41;;;3.50;nan
23166;BME280;11751;42.700;24.170;2023-02-14T08:34:45;94935.97;;;3.67;nan
23166;BME280;11751;42.700;24.170;2023-02-14T08:37:11;94935.06;;;3.81;nan
23166;BME280;11751;42.700;24.170;2023-02-14T08:39:38;94947.41;;;3.80;nan
23166;BME280;11751;42.700;24.170;2023-02-14T08:42:04;94927.97;;;3.75;nan
23166;BME280;11751;42.700;24.170;2023-02-14T08:44:29;94961.13;;;4.00;nan
23166;BME280;11751;42.700;24.170;2023-02-14T08:46:54;94954.06;;;3.99;nan
23166;BME280;11751;42.700;24.170;2023-02-14T08:49:20;94938.97;;;4.00;nan
23166;BME280;11751;42.700;24.170;2023-02-14T08:51:45;94950.13;;;4.11;nan
23166;BME280;11751;42.700;24.170;2023-02-14T08:54:11;94967.25;;;4.10;nan
23166;BME280;11751;42.700;24.170;2023-02-14T08:56:36;94974.00;;;4.03;nan
23166;BME280;11751;42.700;24.170;2023-02-14T08:59:02;94962.66;;;4.01;nan
23166;BME280;11751;42.700;24.170;2023-02-14T09:01:28;94942.72;;;3.97;nan
23166;BME280;11751;42.700;24.170;2023-02-14T09:03:53;94932.84;;;3.85;nan
23166;BME280;11751;42.700;24.170;2023-02-14T09:06:19;94929.13;;;3.99;nan
23166;BME280;11751;42.700;24.170;2023-02-14T09:08:45;94929.25;;;3.79;nan
23166;BME280;11751;42.700;24.170;2023-02-14T09:11:14;94917.38;;;3.73;nan
23166;BME280;11751;42.700;24.170;2023-02-14T09:13:43;94927.22;;;3.74;nan
23166;BME280;11751;42.700;24.170;2023-02-14T09:16:11;94950.34;;;3.71;nan
23166;BME280;11751;42.700;24.170;2023-02-14T09:18:36;94923.19;;;3.75;nan
23166;BME280;11751;42.700;24.170;2023-02-14T09:21:06;94938.28;;;3.74;nan
23166;BME280;11751;42.700;24.170;2023-02-14T09:23:32;94930.25;;;3.76;nan
23166;BME280;11751;42.700;24.170;2023-02-14T09:26:02;94913.25;;;3.94;nan
23166;BME280;11751;42.700;24.170;2023-02-14T09:28:28;94912.38;;;4.19;nan
23166;BME280;11751;42.700;24.170;2023-02-14T09:30:53;94913.69;;;4.29;nan
23166;BME280;11751;42.700;24.170;2023-02-14T09:33:18;94895.91;;;4.52;nan
23166;BME280;11751;42.700;24.170;2023-02-14T09:35:44;94904.03;;;4.72;nan
23166;BME280;11751;42.700;24.170;2023-02-14T09:38:10;94896.00;;;4.79;nan
23166;BME280;11751;42.700;24.170;2023-02-14T09:40:43;94899.72;;;4.71;nan
23166;BME280;11751;42.700;24.170;2023-02-14T09:45:46;94902.03;;;4.78;nan
23166;BME280;11751;42.700;24.170;2023-02-14T09:48:42;94887.91;;;4.87;nan
23166;BME280;11751;42.700;24.170;2023-02-14T09:51:14;94892.97;;;4.83;nan
23166;BME280;11751;42.700;24.170;2023-02-14T09:53:55;94888.97;;;5.05;nan
23166;BME280;11751;42.700;24.170;2023-02-14T09:59:16;94877.31;;;4.80;nan
23166;BME280;11751;42.700;24.170;2023-02-14T10:01:53;94886.13;;;4.73;nan
23166;BME280;11751;42.700;24.170;2023-02-14T10:04:37;94888.41;;;4.80;nan
23166;BME280;11751;42.700;24.170;2023-02-14T10:07:25;94885.69;;;5.02;nan
23166;BME280;11751;42.700;24.170;2023-02-14T10:10:00;94879.38;;;5.17;nan
23166;BME280;11751;42.700;24.170;2023-02-14T10:15:11;94906.44;;;5.28;nan
23166;BME280;11751;42.700;24.170;2023-02-14T10:17:42;94900.34;;;5.29;nan
23166;BME280;11751;42.700;24.170;2023-02-14T10:20:45;94871.34;;;5.52;nan
23166;BME280;11751;42.700;24.170;2023-02-14T10:25:58;94860.72;;;5.56;nan
23166;BME280;11751;42.700;24.170;2023-02-14T10:28:30;94877.41;;;5.78;nan
23166;BME280;11751;42.700;24.170;2023-02-14T10:41:04;94885.47;;;5.21;nan
23166;BME280;11751;42.700;24.170;2023-02-14T10:51:38;94883.81;;;4.66;nan
23166;BME280;11751;42.700;24.170;2023-02-14T10:54:22;94877.91;;;4.31;nan
23166;BME280;11751;42.700;24.170;2023-02-14T11:02:16;94869.72;;;4.64;nan
23166;BME280;11751;42.700;24.170;2023-02-14T11:04:45;94883.59;;;4.80;nan
23166;BME280;11751;42.700;24.170;2023-02-14T11:07:20;94875.59;;;4.99;nan
23166;BME280;11751;42.700;24.170;2023-02-14T11:09:45;94876.63;;;5.17;nan
23166;BME280;11751;42.700;24.170;2023-02-14T11:12:11;94868.56;;;5.25;nan
23166;BME280;11751;42.700;24.170;2023-02-14T11:14:38;94893.56;;;5.41;nan
23166;BME280;11751;42.700;24.170;2023-02-14T11:17:27;94875.84;;;5.55;nan
23166;BME280;11751;42.700;24.170;2023-02-14T11:20:04;94856.66;;;5.74;nan
23166;BME280;11751;42.700;24.170;2023-02-14T11:22:45;94866.28;;;5.23;nan
23166;BME280;11751;42.700;24.170;2023-02-14T11:25:22;94863.50;;;5.51;nan
23166;BME280;11751;42.700;24.170;2023-02-14T11:27:51;94877.13;;;5.60;nan
23166;BME280;11751;42.700;24.170;2023-02-14T11:30:27;94859.19;;;5.66;nan
23166;BME280;11751;42.700;24.170;2023-02-14T11:32:54;94849.88;;;5.42;nan
23166;BME280;11751;42.700;24.170;2023-02-14T11:35:22;94855.41;;;5.64;nan
23166;BME280;11751;42.700;24.170;2023-02-14T11:37:56;94848.59;;;5.59;nan
23166;BME280;11751;42.700;24.170;2023-02-14T11:40:51;94849.34;;;5.87;nan
23166;BME280;11751;42.700;24.170;2023-02-14T11:43:37;94844.31;;;5.80;nan
23166;BME280;11751;42.700;24.170;2023-02-14T11:46:12;94839.22;;;5.90;nan
23166;BME280;11751;42.700;24.170;2023-02-14T11:49:02;94833.69;;;5.68;nan
23166;BME280;11751;42.700;24.170;2023-02-14T11:51:35;94847.56;;;5.73;nan
23166;BME280;11751;42.700;24.170;2023-02-14T11:54:02;94860.97;;;5.42;nan
23166;BME280;11751;42.700;24.170;2023-02-14T11:56:49;94846.59;;;5.32;nan
23166;BME280;11751;42.700;24.170;2023-02-14T11:59:26;94850.59;;;4.99;nan
23166;BME280;11751;42.700;24.170;2023-02-14T12:01:53;94841.97;;;4.64;nan
23166;BME280;11751;42.700;24.170;2023-02-14T12:04:30;94852.09;;;4.89;nan
23166;BME280;11751;42.700;24.170;2023-02-14T12:07:13;94841.25;;;4.85;nan
23166;BME280;11751;42.700;24.170;2023-02-14T12:09:39;94843.50;;;4.76;nan
23166;BME280;11751;42.700;24.170;2023-02-14T12:12:19;94861.16;;;4.73;nan
23166;BME280;11751;42.700;24.170;2023-02-14T12:14:45;94839.47;;;4.77;nan
23166;BME280;11751;42.700;24.170;2023-02-14T12:17:19;94864.72;;;4.84;nan
23166;BME280;11751;42.700;24.170;2023-02-14T12:22:21;94844.97;;;4.66;nan
23166;BME280;11751;42.700;24.170;2023-02-14T12:30:08;94838.97;;;4.73;nan
23166;BME280;11751;42.700;24.170;2023-02-14T12:32:46;94840.44;;;4.52;nan
23166;BME280;11751;42.700;24.170;2023-02-14T12:36:05;94860.53;;;4.36;nan
23166;BME280;11751;42.700;24.170;2023-02-14T12:43:47;94831.72;;;4.06;nan
23166;BME280;11751;42.700;24.170;2023-02-14T12:49:01;94812.38;;;4.33;nan
23166;BME280;11751;42.700;24.170;2023-02-14T12:51:33;94804.06;;;4.33;nan
23166;BME280;11751;42.700;24.170;2023-02-14T12:55:08;94820.19;;;4.29;nan
23166;BME280;11751;42.700;24.170;2023-02-14T13:00:17;94809.09;;;4.24;nan
23166;BME280;11751;42.700;24.170;2023-02-14T13:13:46;94818.00;;;3.86;nan
23166;BME280;11751;42.700;24.170;2023-02-14T13:16:21;94846.16;;;3.79;nan
23166;BME280;11751;42.700;24.170;2023-02-14T13:21:23;94823.63;;;3.55;nan
23166;BME280;11751;42.700;24.170;2023-02-14T13:23:59;94812.34;;;3.64;nan
23166;BME280;11751;42.700;24.170;2023-02-14T13:26:37;94817.88;;;3.64;nan
23166;BME280;11751;42.700;24.170;2023-02-14T13:29:14;94807.91;;;3.83;nan
23166;BME280;11751;42.700;24.170;2023-02-14T13:31:40;94820.84;;;3.55;nan
23166;BME280;11751;42.700;24.170;2023-02-14T13:34:28;94805.56;;;3.65;nan
23166;BME280;11751;42.700;24.170;2023-02-14T13:36:57;94806.81;;;3.64;nan
23166;BME280;11751;42.700;24.170;2023-02-14T13:39:32;94800.25;;;3.67;nan
23166;BME280;11751;42.700;24.170;2023-02-14T13:41:59;94804.25;;;3.55;nan
23166;BME280;11751;42.700;24.170;2023-02-14T13:44:47;94803.06;;;3.73;nan
23166;BME280;11751;42.700;24.170;2023-02-14T13:47:19;94806.81;;;3.64;nan
23166;BME280;11751;42.700;24.170;2023-02-14T13:49:50;94793.25;;;3.77;nan
23166;BME280;11751;42.700;24.170;2023-02-14T13:52:41;94809.38;;;3.73;nan
23166;BME280;11751;42.700;24.170;2023-02-14T13:55:22;94800.25;;;3.62;nan
23166;BME280;11751;42.700;24.170;2023-02-14T13:58:04;94816.31;;;3.52;nan
23166;BME280;11751;42.700;24.170;2023-02-14T14:03:02;94817.50;;;3.46;nan
23166;BME280;11751;42.700;24.170;2023-02-14T14:10:43;94797.66;;;3.53;nan
23166;BME280;11751;42.700;24.170;2023-02-14T14:13:09;94797.19;;;3.54;nan
23166;BME280;11751;42.700;24.170;2023-02-14T14:15:35;94793.09;;;3.44;nan
23166;BME280;11751;42.700;24.170;2023-02-14T14:23:27;94815.56;;;3.52;nan
23166;BME280;11751;42.700;24.170;2023-02-14T14:25:53;94777.72;;;3.38;nan
23166;BME280;11751;42.700;24.170;2023-02-14T14:28:24;94793.38;;;3.46;nan
23166;BME280;11751;42.700;24.170;2023-02-14T14:30:51;94785.06;;;3.46;nan
23166;BME280;11751;42.700;24.170;2023-02-14T14:33:27;94780.31;;;3.52;nan
23166;BME280;11751;42.700;24.170;2023-02-14T14:36:07;94790.84;;;3.48;nan
23166;BME280;11751;42.700;24.170;2023-02-14T14:38:45;94785.00;;;3.36;nan
23166;BME280;11751;42.700;24.170;2023-02-14T14:41:11;94784.47;;;3.32;nan
23166;BME280;11751;42.700;24.170;2023-02-14T14:43:38;94788.03;;;3.38;nan
23166;BME280;11751;42.700;24.170;2023-02-14T14:46:07;94795.06;;;3.38;nan
23166;BME280;11751;42.700;24.170;2023-02-14T14:48:46;94786.75;;;3.38;nan
23166;BME280;11751;42.700;24.170;2023-02-14T14:51:24;94805.69;;;3.45;nan
23166;BME280;11751;42.700;24.170;2023-02-14T14:53:54;94804.69;;;3.48;nan
23166;BME280;11751;42.700;24.170;2023-02-14T14:56:23;94802.66;;;3.43;nan
23166;BME280;11751;42.700;24.170;2023-02-14T14:58:50;94781.53;;;3.46;nan
23166;BME280;11751;42.700;24.170;2023-02-14T15:04:17;94814.78;;;3.51;nan
23166;BME280;11751;42.700;24.170;2023-02-14T15:06:43;94813.19;;;3.39;nan
23166;BME280;11751;42.700;24.170;2023-02-14T15:09:14;94806.94;;;3.44;nan
23166;BME280;11751;42.700;24.170;2023-02-14T15:11:40;94824.56;;;3.47;nan
23166;BME280;11751;42.700;24.170;2023-02-14T15:14:28;94816.78;;;3.45;nan
23166;BME280;11751;42.700;24.170;2023-02-14T15:17:18;94819.81;;;3.47;nan
23166;BME280;11751;42.700;24.170;2023-02-14T15:19:55;94832.06;;;3.36;nan
23166;BME280;11751;42.700;24.170;2023-02-14T15:22:27;94828.22;;;3.28;nan
23166;BME280;11751;42.700;24.170;2023-02-14T15:24:54;94828.28;;;3.38;nan
23166;BME280;11751;42.700;24.170;2023-02-14T15:27:22;94831.47;;;3.26;nan
23166;BME280;11751;42.700;24.170;2023-02-14T15:32:44;94814.13;;;3.26;nan
23166;BME280;11751;42.700;24.170;2023-02-14T15:35:12;94822.69;;;3.28;nan
23166;BME280;11751;42.700;24.170;2023-02-14T15:37:38;94808.13;;;3.33;nan
23166;BME280;11751;42.700;24.170;2023-02-14T15:40:05;94810.69;;;3.41;nan